Shark River Manor, New Jersey
Current Conditions -  °F | °C
As of 2:35 PM on Monday 22 Dec 2014 (Local Time) from KBLM Reporting Station
Overcast Overcast  
Wind Chill:   Ceiling: 2700
Heat Index:   Visibility: 9mi
Dew Point:   Wind: 7mph
Humidity: 70%   Direction: 340°NNW
Pressure: 30.22"   Gusts: NA
Location:  40.1681°N, 74.0774°W
Report Text: KBLM 221935Z AUTO 34006KT 9SM BKN027 OVC036 06/01 A3022 RMK AO1
Loading
Personal Weather Stations






























Interactive Weather Map New forecast layout! Learn more

10-Day Weather Forecast

Advertisements
Track Severe Weather on mobile